Addison, Michigan
Current Conditions -  °F | °C
As of 10:15 PM on Friday 28 Nov 2014 (Local Time) from KJYM Reporting Station
Overcast Overcast  
Wind Chill: 19°   Ceiling: 11000
Heat Index: 27°   Visibility: 10mi
Dew Point: 23°   Wind: 8mph
Humidity: 84%   Direction: 160°SSE
Pressure: 30.02"   Gusts: NA
Location:  41.99°N, 84.35°W
Report Text: KJYM 290315Z AUTO 16007KT 10SM OVC110 M03/M05 A3002 RMK AO2 T10281052
Loading
Personal Weather Stations






























Interactive Weather Map New forecast layout! Learn more

10-Day Weather Forecast

Advertisements
Track Severe Weather on mobile